createdAt,value
2023-01-17T00:00:10.915Z,9.90
2023-01-17T00:02:38.729Z,10.60
2023-01-17T00:05:24.518Z,10.83
2023-01-17T00:08:21.252Z,10.03
2023-01-17T00:10:48.261Z,9.60
2023-01-17T00:13:15.212Z,9.40
2023-01-17T00:15:42.214Z,12.33
2023-01-17T00:18:09.263Z,8.70
2023-01-17T00:20:54.574Z,11.50
2023-01-17T00:23:43.530Z,10.00
2023-01-17T00:26:17.528Z,10.27
2023-01-17T00:28:46.545Z,11.77
2023-01-17T00:31:16.197Z,10.93
2023-01-17T00:33:43.405Z,9.40
2023-01-17T00:36:11.568Z,9.23
2023-01-17T00:38:40.016Z,15.60
2023-01-17T00:41:10.954Z,14.30
2023-01-17T00:43:56.911Z,14.33
2023-01-17T00:46:42.857Z,12.43
2023-01-17T00:49:28.645Z,14.17
2023-01-17T00:52:14.733Z,11.93
2023-01-17T00:55:00.176Z,10.30
2023-01-17T00:57:45.623Z,11.63
2023-01-17T01:00:32.082Z,11.53
2023-01-17T01:03:17.428Z,11.57
2023-01-17T01:06:04.180Z,16.00
2023-01-17T01:08:50.187Z,16.53
2023-01-17T01:11:39.390Z,17.13
2023-01-17T01:14:28.246Z,13.83
2023-01-17T01:17:14.152Z,14.43
2023-01-17T01:19:59.514Z,11.83
2023-01-17T01:22:45.377Z,13.33
2023-01-17T01:25:31.330Z,12.53
2023-01-17T01:28:31.313Z,13.43
2023-01-17T01:31:21.704Z,12.50
2023-01-17T01:33:50.953Z,14.97
2023-01-17T01:36:17.932Z,12.40
2023-01-17T01:38:46.136Z,12.07
2023-01-17T01:41:13.081Z,15.60
2023-01-17T01:44:00.296Z,13.33
2023-01-17T01:46:37.345Z,15.00
2023-01-17T01:49:25.186Z,15.60
2023-01-17T01:52:00.011Z,13.23
2023-01-17T01:54:46.947Z,12.50
2023-01-17T01:57:19.212Z,12.47
2023-01-17T01:59:59.818Z,10.27
2023-01-17T02:02:30.089Z,10.70
2023-01-17T02:05:01.106Z,11.60
2023-01-17T02:07:40.058Z,9.50
2023-01-17T02:10:07.211Z,10.03
2023-01-17T02:12:35.053Z,11.00
2023-01-17T02:15:03.048Z,11.00
2023-01-17T02:17:45.039Z,7.67
2023-01-17T02:20:36.606Z,7.00
2023-01-17T02:23:54.766Z,10.07
2023-01-17T02:26:41.760Z,8.60
2023-01-17T02:29:38.997Z,6.83
2023-01-17T02:32:25.023Z,7.80
2023-01-17T02:35:20.701Z,7.00
2023-01-17T02:38:01.661Z,7.67
2023-01-17T02:41:07.982Z,7.00
2023-01-17T02:43:37.777Z,9.80
2023-01-17T02:46:04.871Z,7.50
2023-01-17T02:48:36.175Z,6.63
2023-01-17T02:51:09.072Z,6.60
2023-01-17T02:53:55.531Z,6.37
2023-01-17T02:56:40.979Z,6.50
2023-01-17T02:59:51.637Z,12.40
2023-01-17T03:03:03.395Z,7.17
2023-01-17T03:05:42.937Z,6.90
2023-01-17T03:08:11.596Z,6.57
2023-01-17T03:10:41.806Z,8.10
2023-01-17T03:13:09.071Z,7.93
2023-01-17T03:15:36.179Z,8.20
2023-01-17T03:18:10.915Z,7.73
2023-01-17T03:20:38.291Z,8.10
2023-01-17T03:23:05.355Z,8.70
2023-01-17T03:25:32.834Z,7.00
2023-01-17T03:27:59.770Z,7.60
2023-01-17T03:30:26.842Z,10.50
2023-01-17T03:32:53.879Z,12.37
2023-01-17T03:35:20.958Z,8.20
2023-01-17T03:37:47.956Z,8.10
2023-01-17T03:40:15.329Z,9.97
2023-01-17T03:42:42.930Z,8.50
2023-01-17T03:45:10.599Z,10.80
2023-01-17T03:47:37.609Z,8.00
2023-01-17T03:50:05.150Z,9.67
2023-01-17T03:52:32.691Z,7.77
2023-01-17T03:54:59.776Z,7.63
2023-01-17T03:57:27.531Z,7.67
2023-01-17T03:59:54.560Z,9.00
2023-01-17T04:02:21.556Z,7.13
2023-01-17T04:04:48.513Z,10.13
2023-01-17T04:07:15.607Z,5.93
2023-01-17T04:09:42.573Z,7.80
2023-01-17T04:12:09.778Z,8.00
2023-01-17T04:14:36.843Z,10.37
2023-01-17T04:17:04.258Z,6.17
2023-01-17T04:19:34.667Z,6.93
2023-01-17T04:22:01.660Z,5.87
2023-01-17T04:24:28.608Z,4.93
2023-01-17T04:26:55.615Z,4.90
2023-01-17T04:29:22.794Z,5.67
2023-01-17T04:31:49.796Z,7.53
2023-01-17T04:34:16.810Z,8.93
2023-01-17T04:36:44.005Z,3.57
2023-01-17T04:39:10.992Z,4.20
2023-01-17T04:41:37.955Z,3.10
2023-01-17T04:44:05.075Z,2.83
2023-01-17T04:46:32.232Z,2.40
2023-01-17T04:49:00.872Z,2.60
2023-01-17T04:51:27.973Z,2.57
2023-01-17T04:53:54.989Z,2.60
2023-01-17T04:56:22.085Z,2.57
2023-01-17T04:58:49.131Z,1.53
2023-01-17T05:01:16.266Z,1.83
2023-01-17T05:03:43.270Z,1.67
2023-01-17T05:06:10.583Z,2.03
2023-01-17T05:08:37.610Z,2.23
2023-01-17T05:11:04.568Z,1.93
2023-01-17T05:13:31.533Z,2.97
2023-01-17T05:15:58.686Z,2.47
2023-01-17T05:18:26.175Z,2.63
2023-01-17T05:20:53.072Z,2.60
2023-01-17T05:23:20.089Z,3.00
2023-01-17T05:25:47.117Z,5.37
2023-01-17T05:28:15.001Z,5.37
2023-01-17T05:30:42.099Z,2.33
2023-01-17T05:33:10.425Z,2.40
2023-01-17T05:35:37.767Z,3.20
2023-01-17T05:38:05.506Z,2.20
2023-01-17T05:40:33.523Z,2.67
2023-01-17T05:43:03.381Z,2.60
2023-01-17T05:45:33.721Z,2.33
2023-01-17T05:48:01.676Z,3.33
2023-01-17T05:50:32.940Z,2.83
2023-01-17T05:53:07.286Z,2.43
2023-01-17T05:55:36.026Z,4.30
2023-01-17T05:58:04.992Z,2.63
2023-01-17T06:00:32.976Z,2.03
2023-01-17T06:03:01.112Z,2.50
2023-01-17T06:05:29.849Z,1.77
2023-01-17T06:07:58.253Z,2.60
2023-01-17T06:10:26.801Z,2.00
2023-01-17T06:13:14.408Z,2.43
2023-01-17T06:15:43.218Z,7.90
2023-01-17T06:18:13.384Z,2.90
2023-01-17T06:20:42.255Z,2.93
2023-01-17T06:23:13.637Z,3.23
2023-01-17T06:25:44.413Z,3.30
2023-01-17T06:28:14.492Z,3.63
2023-01-17T06:30:44.201Z,2.80
2023-01-17T06:33:12.551Z,2.63
2023-01-17T06:35:44.415Z,2.53
2023-01-17T06:38:11.373Z,2.30
2023-01-17T06:40:38.362Z,2.10
2023-01-17T06:43:05.940Z,2.33
2023-01-17T06:45:35.565Z,2.10
2023-01-17T06:48:05.442Z,2.30
2023-01-17T06:50:33.683Z,2.67
2023-01-17T06:53:06.105Z,2.73
2023-01-17T06:55:35.152Z,4.10
2023-01-17T06:58:03.167Z,2.73
2023-01-17T07:00:35.243Z,2.20
2023-01-17T07:03:02.989Z,2.90
2023-01-17T07:05:30.251Z,2.47
2023-01-17T07:07:58.126Z,2.23
2023-01-17T07:10:25.073Z,2.70
2023-01-17T07:12:52.164Z,2.37
2023-01-17T07:15:19.180Z,2.67
2023-01-17T07:17:46.182Z,2.87
2023-01-17T07:20:13.734Z,5.10
2023-01-17T07:22:45.294Z,3.00
2023-01-17T07:25:12.442Z,4.40
2023-01-17T07:27:39.472Z,5.03
2023-01-17T07:30:07.710Z,6.63
2023-01-17T07:32:34.659Z,5.03
2023-01-17T07:35:01.687Z,6.53
2023-01-17T07:37:28.712Z,5.93
2023-01-17T07:39:55.710Z,9.53
2023-01-17T07:42:24.360Z,5.73
2023-01-17T07:44:51.490Z,5.87
2023-01-17T07:47:18.411Z,9.13
2023-01-17T07:49:45.454Z,9.20
2023-01-17T07:52:12.441Z,7.97
2023-01-17T07:54:39.563Z,7.13
2023-01-17T07:57:07.278Z,7.47
2023-01-17T07:59:35.784Z,5.17
2023-01-17T08:02:02.951Z,5.93
2023-01-17T08:04:34.840Z,6.40
2023-01-17T08:07:02.486Z,6.20
2023-01-17T08:09:30.280Z,5.03
2023-01-17T08:11:57.293Z,7.90
2023-01-17T08:14:24.338Z,11.07
2023-01-17T08:16:51.364Z,6.07
2023-01-17T08:19:18.369Z,5.90
2023-01-17T08:21:46.406Z,6.77
2023-01-17T08:24:14.729Z,9.53
2023-01-17T08:26:41.784Z,6.27
2023-01-17T08:29:10.015Z,10.57
2023-01-17T08:31:37.307Z,7.00
2023-01-17T08:34:04.758Z,8.60
2023-01-17T08:36:31.867Z,12.40
2023-01-17T08:38:59.408Z,7.30
2023-01-17T08:41:29.294Z,7.93
2023-01-17T08:43:56.283Z,6.87
2023-01-17T08:46:23.387Z,6.97
2023-01-17T08:48:56.006Z,7.50
2023-01-17T08:51:26.514Z,9.00
2023-01-17T08:53:55.739Z,9.43
2023-01-17T08:56:27.587Z,6.33
2023-01-17T08:58:54.608Z,5.73
2023-01-17T09:01:21.858Z,6.60
2023-01-17T09:03:51.518Z,8.13
2023-01-17T09:06:18.874Z,5.97
2023-01-17T09:08:47.155Z,5.23
2023-01-17T09:11:17.771Z,5.70
2023-01-17T09:13:45.166Z,6.67
2023-01-17T09:16:12.422Z,4.80
2023-01-17T09:18:39.544Z,5.43
2023-01-17T09:21:18.328Z,4.07
2023-01-17T09:23:46.249Z,3.50
2023-01-17T09:26:22.336Z,5.30
2023-01-17T09:28:53.949Z,4.00
2023-01-17T09:31:23.074Z,2.67
2023-01-17T09:33:51.990Z,3.70
2023-01-17T09:36:19.766Z,3.40
2023-01-17T09:38:47.409Z,4.90
2023-01-17T09:41:27.860Z,5.93
2023-01-17T09:44:22.899Z,3.80
2023-01-17T09:46:53.973Z,2.73
2023-01-17T09:49:35.755Z,2.53
2023-01-17T09:52:04.021Z,2.70
2023-01-17T09:54:42.604Z,1.20
2023-01-17T09:57:54.033Z,1.43
2023-01-17T10:00:46.877Z,1.23
2023-01-17T10:03:51.433Z,1.03
2023-01-17T10:06:30.220Z,1.40
2023-01-17T10:09:42.963Z,6.50
2023-01-17T10:12:31.046Z,1.00
2023-01-17T10:15:34.884Z,1.23
2023-01-17T10:18:07.548Z,1.27
2023-01-17T10:20:58.924Z,1.07
2023-01-17T10:23:56.109Z,1.37
2023-01-17T10:26:26.559Z,1.10
2023-01-17T10:29:02.111Z,1.63
2023-01-17T10:31:38.782Z,1.57
2023-01-17T10:34:22.805Z,1.27
2023-01-17T10:37:00.979Z,1.10
2023-01-17T10:39:31.478Z,1.03
2023-01-17T10:42:08.444Z,0.80
2023-01-17T10:44:42.172Z,1.07
2023-01-17T10:47:12.259Z,2.53
2023-01-17T10:49:46.732Z,1.80
2023-01-17T10:52:19.622Z,1.50
2023-01-17T10:55:09.025Z,1.80
2023-01-17T10:57:43.380Z,1.60
2023-01-17T11:00:31.142Z,1.83
2023-01-17T11:02:59.873Z,1.40
2023-01-17T11:05:31.584Z,1.07
2023-01-17T11:08:06.111Z,1.60
2023-01-17T11:10:45.099Z,1.40
2023-01-17T11:13:25.694Z,1.70
2023-01-17T11:16:17.367Z,1.67
2023-01-17T11:18:45.940Z,3.70
2023-01-17T11:21:19.223Z,1.10
2023-01-17T11:23:57.469Z,1.30
2023-01-17T11:26:27.619Z,4.40
2023-01-17T11:29:26.769Z,1.27
2023-01-17T11:31:57.465Z,1.67
2023-01-17T11:34:29.852Z,1.23
2023-01-17T11:37:20.872Z,2.27
2023-01-17T11:39:48.846Z,1.13
2023-01-17T11:42:37.999Z,1.30
2023-01-17T11:45:28.880Z,1.27
2023-01-17T11:48:08.009Z,1.93
2023-01-17T11:50:41.867Z,2.40
2023-01-17T11:53:36.716Z,3.00
2023-01-17T11:56:20.339Z,1.20
2023-01-17T11:58:47.531Z,1.30
2023-01-17T12:01:35.630Z,1.43
2023-01-17T12:04:41.336Z,1.67
2023-01-17T12:07:51.714Z,1.67
2023-01-17T12:10:33.042Z,3.20
2023-01-17T12:13:40.806Z,1.20
2023-01-17T12:16:51.483Z,1.47
2023-01-17T12:19:45.938Z,1.20
2023-01-17T12:22:36.968Z,1.53
2023-01-17T12:25:55.530Z,1.83
2023-01-17T12:29:04.079Z,1.30
2023-01-17T12:38:44.811Z,1.50
2023-01-17T12:41:26.856Z,1.90
2023-01-17T12:44:00.696Z,2.40
2023-01-17T12:46:50.518Z,2.73
2023-01-17T12:49:36.002Z,3.20
2023-01-17T12:52:40.339Z,2.93
2023-01-17T12:55:33.637Z,3.27
2023-01-17T12:58:05.328Z,9.57
2023-01-17T13:00:39.581Z,4.93
2023-01-17T13:03:27.440Z,4.60
2023-01-17T13:05:57.798Z,2.50
2023-01-17T13:08:46.795Z,3.63
2023-01-17T13:11:44.349Z,4.77
2023-01-17T13:14:11.451Z,7.70
2023-01-17T13:16:51.712Z,2.60
2023-01-17T13:19:50.814Z,2.13
2023-01-17T13:22:21.769Z,2.10
2023-01-17T13:25:12.610Z,2.23
2023-01-17T13:28:16.352Z,4.30
2023-01-17T13:31:14.524Z,3.03
2023-01-17T13:34:30.251Z,1.83
2023-01-17T13:37:34.661Z,3.30
2023-01-17T13:40:30.458Z,2.13
2023-01-17T13:43:03.151Z,5.47
2023-01-17T13:45:35.720Z,2.50
2023-01-17T13:48:19.005Z,1.90
2023-01-17T13:50:58.197Z,3.30
2023-01-17T13:53:34.407Z,2.33
2023-01-17T13:56:20.036Z,1.83
2023-01-17T13:58:58.449Z,1.40
2023-01-17T14:01:25.492Z,4.30
2023-01-17T14:03:52.793Z,5.03
2023-01-17T14:06:49.237Z,1.17
2023-01-17T14:09:20.996Z,3.47
2023-01-17T14:12:04.520Z,2.53
2023-01-17T14:14:40.301Z,2.67
2023-01-17T14:17:16.590Z,1.83
2023-01-17T14:19:46.898Z,1.70
2023-01-17T14:22:31.512Z,1.87
2023-01-17T14:25:03.693Z,2.10
2023-01-17T14:27:39.267Z,7.40
2023-01-17T14:30:17.718Z,2.00
2023-01-17T14:33:17.471Z,2.10
2023-01-17T14:35:56.673Z,3.27
2023-01-17T14:38:27.912Z,9.23
2023-01-17T14:41:02.254Z,5.33
2023-01-17T14:43:33.861Z,2.33
2023-01-17T14:46:30.128Z,2.20
2023-01-17T14:49:15.263Z,2.80
2023-01-17T14:51:42.261Z,4.90
2023-01-17T14:54:22.464Z,2.30
2023-01-17T14:56:49.456Z,6.80
2023-01-17T14:59:23.146Z,4.57
2023-01-17T15:02:07.113Z,1.87
2023-01-17T15:04:40.030Z,2.63
2023-01-17T15:07:07.930Z,12.87
2023-01-17T15:09:38.923Z,1.90
2023-01-17T15:12:11.092Z,2.10
2023-01-17T15:14:43.867Z,3.23
2023-01-17T15:17:26.585Z,2.23
2023-01-17T15:20:18.074Z,5.67
2023-01-17T15:22:45.784Z,1.87
2023-01-17T15:25:14.779Z,4.43
2023-01-17T15:27:43.209Z,3.23
2023-01-17T15:30:15.697Z,2.57
2023-01-17T15:32:47.881Z,2.30
2023-01-17T15:35:19.466Z,2.43
2023-01-17T15:37:53.967Z,3.73
2023-01-17T15:40:24.318Z,5.13
2023-01-17T15:42:58.955Z,2.93
2023-01-17T15:45:32.786Z,2.90
2023-01-17T15:48:36.469Z,2.13
2023-01-17T15:51:03.596Z,3.23
2023-01-17T15:53:35.907Z,2.43
2023-01-17T15:56:32.143Z,3.30
2023-01-17T15:59:42.106Z,4.70
2023-01-17T16:02:55.495Z,2.60
2023-01-17T16:05:28.209Z,2.67
2023-01-17T16:08:25.221Z,2.40
2023-01-17T16:11:02.267Z,3.70
2023-01-17T16:13:33.079Z,3.63
2023-01-17T16:16:29.222Z,3.73
2023-01-17T16:19:01.448Z,6.17
2023-01-17T16:21:31.810Z,3.03
2023-01-17T16:24:00.199Z,4.00
2023-01-17T16:26:29.531Z,4.53
2023-01-17T16:28:57.155Z,3.73
2023-01-17T16:31:24.240Z,3.03
2023-01-17T16:33:51.341Z,3.60
2023-01-17T16:36:19.759Z,2.70
2023-01-17T16:38:50.932Z,2.80
2023-01-17T16:41:18.803Z,3.47
2023-01-17T16:43:45.743Z,3.53
2023-01-17T16:46:13.042Z,2.83
2023-01-17T16:48:40.107Z,3.00
2023-01-17T16:51:08.741Z,4.13
2023-01-17T16:53:38.772Z,3.03
2023-01-17T16:56:12.349Z,3.17
2023-01-17T16:58:40.181Z,3.47
2023-01-17T17:01:17.841Z,3.10
2023-01-17T17:03:45.413Z,3.10
2023-01-17T17:06:13.900Z,3.43
2023-01-17T17:08:41.042Z,3.03
2023-01-17T17:11:15.081Z,5.97
2023-01-17T17:13:44.823Z,4.43
2023-01-17T17:16:22.303Z,4.90
2023-01-17T17:19:02.016Z,6.27
2023-01-17T17:21:31.094Z,11.77
2023-01-17T17:24:00.178Z,8.23
2023-01-17T17:26:32.544Z,9.27
2023-01-17T17:28:59.577Z,7.90
2023-01-17T17:31:28.046Z,11.67
2023-01-17T17:34:00.057Z,6.73
2023-01-17T17:36:27.242Z,8.33
2023-01-17T17:38:56.291Z,5.53
2023-01-17T17:41:27.879Z,5.10
2023-01-17T17:43:56.060Z,6.70
2023-01-17T17:46:25.259Z,4.40
2023-01-17T17:48:52.483Z,4.70
2023-01-17T17:51:25.505Z,5.23
2023-01-17T17:53:54.763Z,2.77
2023-01-17T17:56:24.218Z,3.53
2023-01-17T17:58:51.384Z,3.60
2023-01-17T18:01:18.487Z,3.83
2023-01-17T18:03:45.488Z,3.67
2023-01-17T18:06:13.555Z,5.43
2023-01-17T18:08:40.551Z,4.87
2023-01-17T18:11:15.009Z,4.80
2023-01-17T18:13:43.039Z,3.23
2023-01-17T18:16:13.396Z,4.57
2023-01-17T18:18:45.169Z,3.93
2023-01-17T18:21:24.509Z,4.47
2023-01-17T18:24:04.535Z,5.33
2023-01-17T18:26:33.887Z,5.10
2023-01-17T18:29:02.847Z,4.90
2023-01-17T18:31:31.513Z,4.40
2023-01-17T18:34:03.872Z,4.80
2023-01-17T18:36:31.448Z,5.00
2023-01-17T18:38:58.551Z,3.77
2023-01-17T18:41:29.159Z,4.60
2023-01-17T18:43:59.779Z,13.53
2023-01-17T18:46:27.125Z,3.33
2023-01-17T18:48:57.366Z,3.30
2023-01-17T18:51:26.022Z,4.10
2023-01-17T18:53:53.164Z,5.00
2023-01-17T18:56:23.329Z,3.63
2023-01-17T18:58:51.599Z,2.63
2023-01-17T19:01:24.595Z,3.40
2023-01-17T19:03:55.698Z,3.20
2023-01-17T19:06:27.821Z,3.33
2023-01-17T19:08:55.139Z,3.43
2023-01-17T19:11:24.309Z,4.40
2023-01-17T19:13:52.737Z,3.07
2023-01-17T19:16:31.002Z,2.90
2023-01-17T19:19:04.042Z,3.33
2023-01-17T19:21:32.213Z,3.20
2023-01-17T19:24:00.044Z,3.87
2023-01-17T19:26:28.278Z,2.93
2023-01-17T19:28:59.074Z,3.40
2023-01-17T19:31:31.999Z,3.57
2023-01-17T19:34:00.367Z,5.70
2023-01-17T19:36:34.009Z,3.00
2023-01-17T19:39:05.393Z,6.47
2023-01-17T19:41:36.851Z,2.73
2023-01-17T19:44:09.269Z,2.90
2023-01-17T19:46:37.393Z,2.03
2023-01-17T19:49:07.452Z,1.90
2023-01-17T19:51:34.753Z,2.70
2023-01-17T19:54:04.225Z,2.50
2023-01-17T19:56:31.736Z,2.80
2023-01-17T19:59:01.809Z,2.53
2023-01-17T20:01:32.850Z,2.13
2023-01-17T20:04:04.004Z,3.10
2023-01-17T20:06:36.409Z,4.90
2023-01-17T20:09:05.952Z,3.73
2023-01-17T20:11:33.304Z,3.00
2023-01-17T20:14:00.662Z,4.43
2023-01-17T20:16:31.205Z,2.73
2023-01-17T20:18:59.579Z,3.30
2023-01-17T20:21:29.546Z,2.40
2023-01-17T20:23:59.848Z,3.03
2023-01-17T20:26:37.053Z,2.27
2023-01-17T20:29:10.382Z,2.43
2023-01-17T20:31:39.915Z,3.90
2023-01-17T20:34:10.811Z,2.33
2023-01-17T20:36:39.783Z,2.27
2023-01-17T20:39:08.803Z,3.43
2023-01-17T20:41:39.219Z,2.80
2023-01-17T20:44:10.125Z,3.60
2023-01-17T20:46:41.397Z,2.70
2023-01-17T20:49:19.998Z,3.17
2023-01-17T20:51:49.091Z,2.53
2023-01-17T20:54:19.548Z,3.73
2023-01-17T20:56:47.961Z,4.67
2023-01-17T20:59:19.892Z,3.07
2023-01-17T21:01:48.786Z,4.37
2023-01-17T21:04:16.835Z,3.90
2023-01-17T21:06:44.570Z,3.83
2023-01-17T21:09:15.242Z,3.20
2023-01-17T21:11:42.290Z,2.87
2023-01-17T21:14:09.972Z,2.40
2023-01-17T21:16:37.110Z,3.20
2023-01-17T21:19:05.652Z,3.57
2023-01-17T21:21:32.603Z,2.60
2023-01-17T21:24:00.501Z,4.30
2023-01-17T21:26:28.967Z,6.00
2023-01-17T21:28:56.280Z,4.67
2023-01-17T21:31:30.495Z,3.30
2023-01-17T21:34:07.246Z,2.70
2023-01-17T21:36:40.880Z,3.53
2023-01-17T21:39:20.080Z,4.07
2023-01-17T21:41:50.927Z,6.67
2023-01-17T21:44:21.623Z,4.47
2023-01-17T21:46:54.284Z,3.17
2023-01-17T21:49:23.542Z,3.50
2023-01-17T21:51:53.135Z,3.97
2023-01-17T21:54:41.925Z,4.40
2023-01-17T21:57:29.915Z,3.80
2023-01-17T21:59:56.884Z,6.07
2023-01-17T22:02:24.138Z,3.30
2023-01-17T22:04:51.543Z,4.00
2023-01-17T22:07:18.531Z,4.50
2023-01-17T22:09:45.532Z,6.03
2023-01-17T22:12:13.065Z,10.57
2023-01-17T22:14:39.993Z,9.93
2023-01-17T22:17:06.863Z,22.60
2023-01-17T22:19:34.781Z,10.80
2023-01-17T22:22:01.835Z,9.10
2023-01-17T22:24:28.823Z,6.77
2023-01-17T22:26:55.745Z,9.00
2023-01-17T22:29:23.235Z,5.57
2023-01-17T22:31:50.267Z,4.43
2023-01-17T22:34:19.256Z,4.43
2023-01-17T22:36:46.505Z,3.73
2023-01-17T22:39:13.642Z,5.07
2023-01-17T22:41:40.784Z,4.97
2023-01-17T22:44:08.347Z,4.43
2023-01-17T22:46:38.634Z,4.90
2023-01-17T22:49:08.427Z,5.27
2023-01-17T22:51:36.310Z,5.50
2023-01-17T22:54:03.214Z,4.93
2023-01-17T22:56:33.463Z,5.53
2023-01-17T22:59:02.119Z,4.90
2023-01-17T23:01:31.791Z,5.43
2023-01-17T23:04:02.773Z,5.10
2023-01-17T23:06:33.366Z,5.80
2023-01-17T23:09:10.922Z,5.63
2023-01-17T23:11:43.522Z,4.93
2023-01-17T23:14:23.783Z,4.93
2023-01-17T23:17:12.956Z,5.10
2023-01-17T23:19:45.065Z,5.13
2023-01-17T23:22:21.848Z,5.33
2023-01-17T23:25:09.440Z,5.43
2023-01-17T23:28:06.018Z,8.23
2023-01-17T23:30:38.842Z,10.47
2023-01-17T23:33:15.600Z,5.20
2023-01-17T23:35:45.371Z,6.00
2023-01-17T23:38:26.844Z,5.80
2023-01-17T23:41:18.290Z,5.83
2023-01-17T23:43:51.084Z,6.30
2023-01-17T23:46:18.993Z,6.80
2023-01-17T23:48:46.159Z,5.70
2023-01-17T23:51:13.215Z,5.63
2023-01-17T23:53:41.066Z,6.43
2023-01-17T23:56:19.777Z,6.43
2023-01-17T23:58:46.743Z,4.27
